Time;durP1;ratioP1;P1;durP2;ratioP2;P2;SDS_P1;SDS_P2;PMS_P1;PMS_P2;Temp;Humidity;BMP_temperature;BMP_pressure;BME280_temperature;BME280_humidity;BME280_pressure;Samples;Min_cycle;Max_cycle;Signal;HPM_P1;HPM_P2
2021/06/18 00:00:24;;;;;;;2.20;2.10;;;28.30;43.70;;;31.92;28.88;101113.03;5156581;27;20051;-52
2021/06/18 00:02:50;;;;;;;2.37;2.17;;;28.20;43.80;;;31.90;28.99;101108.81;5156491;27;20049;-51
2021/06/18 00:05:16;;;;;;;2.53;2.33;;;28.20;43.80;;;31.90;28.97;101108.81;5156499;27;20122;-49
2021/06/18 00:07:44;;;;;;;2.50;2.30;;;28.20;43.80;;;31.85;29.06;101101.16;5156401;27;20484;-53
2021/06/18 00:10:12;;;;;;;2.45;2.25;;;28.20;43.90;;;31.84;28.73;101104.03;5156419;27;20038;-49
2021/06/18 00:12:38;;;;;;;2.55;2.35;;;28.10;43.80;;;31.83;28.77;101102.34;5156588;27;20046;-52
2021/06/18 00:15:07;;;;;;;2.22;2.03;;;28.10;43.90;;;31.80;28.82;101103.50;5156343;27;20046;-51
2021/06/18 00:17:33;;;;;;;2.63;2.42;;;28.10;43.90;;;31.79;28.90;101096.41;5156268;27;20043;-50
2021/06/18 00:19:59;;;;;;;2.50;2.30;;;28.10;44.00;;;31.78;28.98;101100.13;5156368;27;20043;-53
2021/06/18 00:22:25;;;;;;;2.10;1.98;;;28.10;44.00;;;31.79;29.12;101103.66;5138176;27;20051;-51
2021/06/18 00:24:53;;;;;;;2.58;2.38;;;28.10;44.00;;;31.77;29.22;101101.97;5156214;27;20064;-49
2021/06/18 00:27:18;;;;;;;2.00;1.90;;;28.00;44.00;;;31.76;29.18;101103.00;5156453;27;20440;-50
2021/06/18 00:29:44;;;;;;;2.60;2.40;;;28.00;44.00;;;31.72;29.12;101084.53;5137585;27;20134;-51
2021/06/18 00:32:10;;;;;;;2.40;2.20;;;28.00;44.60;;;31.74;29.11;101093.34;5156477;27;20095;-49
2021/06/18 00:34:36;;;;;;;2.40;2.20;;;28.00;44.60;;;31.73;29.08;101097.06;5156526;27;20127;-51
2021/06/18 00:37:01;;;;;;;2.30;2.20;;;28.00;44.10;;;31.71;28.92;101097.22;5156145;27;20038;-51
2021/06/18 00:39:28;;;;;;;2.50;2.30;;;28.00;44.70;;;31.70;29.30;101103.63;5155867;27;20084;-49
2021/06/18 00:41:54;;;;;;;2.08;1.98;;;28.00;44.20;;;31.69;29.35;101111.91;5156278;27;20047;-50
2021/06/18 00:44:20;;;;;;;2.63;2.20;;;27.90;44.20;;;31.66;29.46;101107.66;5156344;27;20050;-51
2021/06/18 00:46:46;;;;;;;2.28;2.08;;;27.90;44.20;;;31.65;29.40;101094.31;5155950;27;20035;-50
2021/06/18 00:49:14;;;;;;;2.10;2.00;;;27.90;44.20;;;31.66;29.27;101096.00;5155738;27;20047;-52
2021/06/18 00:51:40;;;;;;;2.60;2.40;;;27.90;44.20;;;31.65;29.17;101099.72;5155778;27;20043;-50
2021/06/18 00:54:07;;;;;;;2.08;1.98;;;27.90;44.30;;;31.62;29.27;101100.03;5155732;27;20403;-50
2021/06/18 00:56:33;;;;;;;2.10;2.00;;;27.90;44.30;;;31.61;29.23;101087.53;5155641;27;20047;-50
2021/06/18 00:59:00;;;;;;;2.22;2.10;;;27.90;44.40;;;31.60;29.40;101088.53;5156100;27;20050;-51
2021/06/18 01:01:25;;;;;;;2.55;2.35;;;27.90;44.40;;;31.58;29.34;101086.00;5155617;27;20039;-52
2021/06/18 01:03:51;;;;;;;2.10;2.00;;;27.80;44.30;;;31.56;29.14;101088.84;5135792;27;20503;-48
2021/06/18 01:06:31;;;;;;;2.45;2.25;;;27.80;44.40;;;31.52;29.52;101092.03;5154831;27;20051;-48
2021/06/18 01:09:04;;;;;;;2.10;2.00;;;27.80;44.40;;;31.52;29.37;101087.47;5136288;27;20049;-51
2021/06/18 01:11:54;;;;;;;2.10;2.00;;;27.80;44.40;;;31.53;29.25;101086.47;5155556;27;20053;-51
2021/06/18 01:15:00;;;;;;;2.25;2.15;;;27.80;44.50;;;31.51;29.42;101084.94;5136856;27;20042;-54
2021/06/18 01:18:02;;;;;;;2.42;2.22;;;27.80;44.50;;;31.49;29.57;101076.97;5135744;27;20043;-52
2021/06/18 01:21:04;;;;;;;2.20;2.10;;;27.80;44.60;;;31.48;29.54;101077.13;5136566;27;20134;-53
2021/06/18 01:23:29;;;;;;;2.10;2.00;;;27.80;44.60;;;31.47;29.50;101068.16;5137004;27;20050;-53
2021/06/18 01:26:24;;;;;;;2.55;2.35;;;27.80;44.60;;;31.45;29.53;101062.06;5136963;27;20051;-46
2021/06/18 01:28:54;;;;;;;2.20;2.10;;;27.70;44.60;;;31.46;29.51;101061.06;5155152;27;20039;-52
2021/06/18 01:31:25;;;;;;;2.50;2.30;;;27.70;44.60;;;31.46;29.51;101065.59;5134486;27;20055;-51
2021/06/18 01:34:00;;;;;;;2.25;2.08;;;27.70;44.60;;;31.43;29.57;101064.09;5134591;27;20134;-52
2021/06/18 01:36:28;;;;;;;2.45;2.25;;;27.70;44.70;;;31.42;29.49;101061.53;5135074;27;20051;-53
2021/06/18 01:38:57;;;;;;;2.50;2.30;;;27.70;44.70;;;31.40;29.61;101054.44;5132894;27;20043;-53
2021/06/18 01:41:29;;;;;;;2.55;2.35;;;27.70;44.70;;;31.40;29.50;101046.31;5154761;27;20046;-50
2021/06/18 01:43:58;;;;;;;2.50;2.30;;;27.70;44.80;;;31.39;29.41;101041.06;5154994;27;20053;-51
2021/06/18 01:46:28;;;;;;;2.28;2.15;;;27.70;44.80;;;31.37;29.69;101048.50;5136168;27;20487;-52
2021/06/18 01:49:05;;;;;;;2.17;2.08;;;27.70;44.80;;;31.39;29.40;101057.28;5136333;27;20058;-54
2021/06/18 01:51:33;;;;;;;2.50;2.30;;;27.60;44.70;;;31.38;29.85;101055.63;5136399;27;20038;-49
2021/06/18 01:54:00;;;;;;;2.10;2.00;;;27.60;44.70;;;31.37;29.64;101060.19;5136848;27;20396;-53
2021/06/18 01:56:30;;;;;;;2.05;1.95;;;27.60;44.80;;;31.34;29.76;101056.94;5154639;27;20488;-49
2021/06/18 01:58:58;;;;;;;2.20;2.10;;;27.60;44.80;;;31.34;29.73;101060.50;5154059;27;20046;-53
2021/06/18 02:01:32;;;;;;;2.35;2.17;;;27.60;44.80;;;31.30;29.79;101045.59;5135389;27;20065;-51
2021/06/18 02:03:58;;;;;;;2.05;1.95;;;27.60;44.90;;;31.32;29.76;101048.13;5136052;27;20510;-53
2021/06/18 02:06:26;;;;;;;2.17;2.03;;;27.60;44.90;;;31.32;29.68;101053.53;5154275;27;20074;-50
2021/06/18 02:08:57;;;;;;;2.58;2.38;;;27.60;44.90;;;31.28;29.61;101035.97;5134631;27;20058;-52
2021/06/18 02:11:28;;;;;;;2.03;1.92;;;27.50;44.90;;;31.28;29.69;101044.06;5134973;27;20039;-48
2021/06/18 02:13:56;;;;;;;2.22;2.03;;;27.50;44.90;;;31.27;29.89;101040.50;5134621;27;20073;-48
2021/06/18 02:16:25;;;;;;;2.00;1.90;;;27.50;44.90;;;31.26;29.97;101046.06;5134020;27;20510;-51
2021/06/18 02:18:54;;;;;;;2.38;2.17;;;27.50;44.90;;;31.27;29.83;101045.91;5132739;27;20047;-50
2021/06/18 02:21:21;;;;;;;1.90;1.80;;;27.50;45.00;;;31.27;29.83;101047.78;5154125;27;20047;-46
2021/06/18 02:23:48;;;;;;;2.10;2.00;;;27.50;45.00;;;31.24;30.03;101048.94;5135380;27;20559;-52
2021/06/18 02:26:16;;;;;;;2.33;2.15;;;27.50;45.00;;;31.24;30.00;101048.09;5134364;27;20496;-51
2021/06/18 02:28:42;;;;;;;2.30;2.20;;;27.50;45.00;;;31.23;29.88;101044.53;5154107;27;20055;-51
2021/06/18 02:31:11;;;;;;;2.05;1.95;;;27.50;45.00;;;31.20;29.86;101040.28;5154370;27;20125;-50
2021/06/18 02:33:37;;;;;;;2.50;2.30;;;27.50;45.00;;;31.21;29.79;101042.00;5154370;27;20054;-48
2021/06/18 02:36:04;;;;;;;1.88;1.77;;;27.50;45.10;;;31.21;29.83;101039.31;5154042;27;20107;-50
2021/06/18 02:38:31;;;;;;;1.90;1.80;;;27.40;45.00;;;31.21;29.93;101033.06;5134041;27;20046;-51
2021/06/18 02:40:56;;;;;;;2.20;2.00;;;27.40;45.10;;;31.17;29.93;101027.13;5154608;27;20051;-51
2021/06/18 02:43:22;;;;;;;2.30;2.10;;;27.40;45.00;;;31.16;29.88;101030.81;5135915;27;20427;-53
2021/06/18 02:45:48;;;;;;;2.25;2.13;;;27.40;45.10;;;31.18;30.07;101034.22;5154133;27;20035;-52
2021/06/18 02:48:40;;;;;;;2.03;1.92;;;27.40;45.10;;;31.15;30.02;101029.13;5153689;27;20042;-50
2021/06/18 02:51:16;;;;;;;1.90;1.80;;;27.40;45.10;;;31.13;29.92;101031.13;5153827;27;20061;-50
2021/06/18 02:53:55;;;;;;;2.25;2.00;;;27.40;45.70;;;31.12;29.89;101034.00;5134938;27;20130;-52
2021/06/18 02:56:28;;;;;;;1.90;1.80;;;27.40;45.20;;;31.14;29.89;101042.78;5133762;27;20407;-52
2021/06/18 02:59:10;;;;;;;2.20;2.10;;;27.40;45.20;;;31.11;29.96;101043.13;5133796;27;20051;-46
2021/06/18 03:01:39;;;;;;;2.08;1.98;;;27.40;45.20;;;31.17;29.91;101048.75;5154160;27;20388;-51
2021/06/18 03:04:18;;;;;;;2.20;2.10;;;27.40;45.20;;;31.14;30.05;101048.19;5153667;27;20051;-53
2021/06/18 03:06:50;;;;;;;1.98;1.88;;;27.40;45.20;;;31.15;30.04;101045.31;5153753;27;20046;-52
2021/06/18 03:09:32;;;;;;;1.98;1.88;;;27.40;45.20;;;31.15;29.86;101044.50;5135673;27;20077;-51
2021/06/18 03:12:00;;;;;;;3.10;2.05;;;27.40;45.10;;;31.15;29.98;101044.50;5154052;27;20050;-48
2021/06/18 03:14:29;;;;;;;2.20;2.10;;;27.40;45.20;;;31.13;30.01;101035.72;5135122;27;20092;-47
2021/06/18 03:17:00;;;;;;;2.13;1.95;;;27.40;45.20;;;31.15;29.96;101034.53;5133480;27;20134;-47
2021/06/18 03:19:32;;;;;;;2.40;2.20;;;27.40;45.10;;;31.14;30.02;101034.69;5133658;27;20533;-52
2021/06/18 03:22:04;;;;;;;2.03;1.92;;;27.40;45.10;;;31.19;29.93;101041.31;5135130;27;20441;-47
2021/06/18 03:24:32;;;;;;;2.08;1.98;;;27.50;45.20;;;31.18;29.97;101038.78;5134914;27;20157;-50
2021/06/18 03:26:59;;;;;;;2.20;2.00;;;27.50;45.10;;;31.24;29.91;101046.25;5153556;27;20126;-47
2021/06/18 03:29:27;;;;;;;2.60;2.40;;;27.50;45.10;;;31.26;29.89;101044.22;5117974;27;20047;-47
2021/06/18 03:32:00;;;;;;;2.00;1.90;;;27.50;45.00;;;31.28;29.95;101047.63;5157225;27;20053;-50
2021/06/18 03:34:28;;;;;;;2.08;1.98;;;27.60;45.00;;;31.30;29.86;101045.59;5157077;27;20050;-51
2021/06/18 03:36:55;;;;;;;2.30;2.10;;;27.60;45.00;;;31.34;29.78;101046.13;5156879;27;20092;-50
2021/06/18 03:39:22;;;;;;;2.08;1.98;;;27.60;44.80;;;31.37;29.77;101048.50;5138543;27;20084;-49
2021/06/18 03:41:48;;;;;;;2.00;1.90;;;27.60;44.80;;;31.40;29.72;101050.88;5157258;27;20043;-50
2021/06/18 03:44:20;;;;;;;2.28;2.10;;;27.70;44.80;;;31.40;29.66;101049.03;5157169;27;20549;-51
2021/06/18 03:46:47;;;;;;;2.22;2.13;;;27.70;44.70;;;31.47;29.77;101049.22;5138755;27;20050;-47
2021/06/18 03:49:13;;;;;;;1.98;1.88;;;27.80;44.70;;;31.48;29.57;101050.94;5136559;27;20086;-48
2021/06/18 03:51:39;;;;;;;2.10;2.00;;;27.80;44.60;;;31.54;29.70;101060.28;5138200;27;20042;-48
2021/06/18 03:54:06;;;;;;;2.10;1.90;;;27.80;45.10;;;31.58;29.44;101067.06;5138689;27;20133;-48
2021/06/18 03:56:35;;;;;;;1.92;1.83;;;27.80;44.50;;;31.62;29.43;101057.63;5156577;27;20038;-51
2021/06/18 03:59:04;;;;;;;1.88;1.77;;;27.90;44.40;;;31.66;29.38;101063.56;5138442;27;20126;-54
2021/06/18 04:01:33;;;;;;;2.10;2.00;;;27.90;44.40;;;31.70;29.27;101068.47;5138351;27;20054;-51
2021/06/18 04:04:00;;;;;;;2.20;2.00;;;28.00;44.40;;;31.73;29.31;101065.47;5156839;27;20054;-46
2021/06/18 04:06:29;;;;;;;1.80;1.70;;;28.00;44.20;;;31.76;29.00;101065.16;5137887;27;20066;-51
2021/06/18 04:08:56;;;;;;;2.10;2.00;;;28.00;44.10;;;31.81;29.05;101053.84;5138328;27;20038;-49
2021/06/18 04:11:22;;;;;;;2.03;1.92;;;28.10;44.10;;;31.89;29.25;101056.59;5156488;27;20123;-51
2021/06/18 04:13:48;;;;;;;2.08;1.98;;;28.20;44.00;;;31.93;28.91;101054.41;5136077;27;20161;-49
2021/06/18 04:16:14;;;;;;;1.80;1.70;;;28.20;43.90;;;31.99;29.18;101055.59;5137434;27;20095;-51
2021/06/18 04:18:44;;;;;;;2.17;2.05;;;28.30;43.80;;;32.06;29.07;101060.22;5136745;27;20063;-53
2021/06/18 04:21:18;;;;;;;2.42;2.22;;;28.30;43.80;;;32.11;28.83;101067.81;5156477;27;20076;-53
2021/06/18 04:23:44;;;;;;;1.90;1.80;;;28.40;43.70;;;32.18;28.70;101058.06;5156385;27;20158;-51
2021/06/18 04:26:10;;;;;;;2.28;2.08;;;28.50;43.60;;;32.22;28.50;101056.69;5136203;27;20097;-52
2021/06/18 04:28:37;;;;;;;2.10;2.00;;;28.50;43.60;;;32.29;28.44;101062.28;5156018;27;20500;-53
2021/06/18 04:31:06;;;;;;;2.15;1.95;;;28.50;43.50;;;32.30;28.74;101054.03;5137844;27;20038;-50
2021/06/18 04:33:33;;;;;;;1.67;1.58;;;28.50;43.40;;;32.38;28.50;101064.03;5155995;27;20125;-53
2021/06/18 04:35:59;;;;;;;1.95;1.77;;;28.60;43.40;;;32.41;28.48;101057.41;5156244;27;20106;-48
2021/06/18 04:38:25;;;;;;;1.92;1.83;;;28.60;43.30;;;32.42;28.40;101053.72;5155950;27;20057;-52
2021/06/18 04:40:52;;;;;;;1.80;1.70;;;28.60;43.30;;;32.52;28.35;101053.56;5137439;27;20038;-52
2021/06/18 04:43:18;;;;;;;2.10;2.00;;;28.70;43.30;;;32.55;28.49;101048.66;5155292;27;20050;-54
2021/06/18 04:45:44;;;;;;;2.00;1.90;;;28.70;43.30;;;32.60;28.42;101056.28;5156127;27;20042;-53
2021/06/18 04:48:11;;;;;;;1.83;1.73;;;28.80;43.30;;;32.63;28.39;101048.69;5137775;27;20046;-52
2021/06/18 04:50:38;;;;;;;1.98;1.88;;;28.90;43.20;;;32.71;28.04;101055.13;5155676;27;20134;-53
2021/06/18 04:53:09;;;;;;;1.73;1.63;;;28.90;43.20;;;32.74;28.31;101057.50;5155799;27;20058;-51
2021/06/18 04:55:35;;;;;;;2.47;2.10;;;28.90;43.00;;;32.77;28.12;101052.59;5156075;27;20453;-50
2021/06/18 04:58:01;;;;;;;2.67;2.00;;;28.90;43.00;;;32.83;28.22;101061.91;5155549;27;20062;-50
2021/06/18 05:00:28;;;;;;;2.10;2.00;;;29.00;42.90;;;32.87;27.85;101049.72;5155783;27;20083;-48
2021/06/18 05:02:54;;;;;;;1.83;1.73;;;29.00;42.80;;;32.90;28.11;101048.53;5137295;27;20050;-49
2021/06/18 05:05:20;;;;;;;2.03;1.92;;;29.10;42.80;;;32.96;27.60;101050.53;5155871;27;20051;-46
2021/06/18 05:07:46;;;;;;;2.10;2.00;;;29.10;42.80;;;32.97;27.54;101036.00;5155848;27;20058;-49
2021/06/18 05:10:12;;;;;;;1.98;1.80;;;29.10;42.70;;;33.02;27.50;101048.00;5155511;27;20107;-50
2021/06/18 05:12:38;;;;;;;1.70;1.60;;;29.10;42.60;;;33.07;27.91;101052.06;5155466;27;20134;-51
2021/06/18 05:15:05;;;;;;;1.80;1.70;;;29.20;42.70;;;33.10;27.80;101059.88;5155389;27;20070;-47
2021/06/18 05:17:31;;;;;;;1.67;1.58;;;29.20;42.60;;;33.13;27.79;101059.50;5155269;27;20039;-50
2021/06/18 05:19:57;;;;;;;2.50;2.20;;;29.20;42.50;;;33.15;27.37;101054.78;5155170;27;20119;-49
2021/06/18 05:22:23;;;;;;;2.35;2.20;;;29.30;42.50;;;33.16;27.76;101053.75;5155197;27;20079;-47
2021/06/18 05:24:48;;;;;;;2.20;2.10;;;29.30;42.50;;;33.20;27.74;101057.84;5155165;27;20157;-50
2021/06/18 05:27:14;;;;;;;1.95;1.85;;;29.30;42.50;;;33.23;27.64;101063.75;5155477;27;20498;-50
2021/06/18 05:29:40;;;;;;;1.90;1.80;;;29.40;42.50;;;33.26;27.27;101072.56;5155201;27;20396;-50
2021/06/18 05:32:06;;;;;;;2.00;1.90;;;29.40;42.50;;;33.27;27.15;101069.69;5155736;27;20391;-49
2021/06/18 05:34:32;;;;;;;2.00;1.90;;;29.40;42.40;;;33.29;27.19;101069.50;5155064;27;20131;-46
2021/06/18 05:36:58;;;;;;;1.90;1.80;;;29.40;42.30;;;33.32;27.39;101066.47;5155036;27;20135;-50
2021/06/18 05:39:23;;;;;;;2.10;2.00;;;29.50;42.40;;;33.34;27.37;101070.66;5154962;27;20419;-51
2021/06/18 05:41:49;;;;;;;1.88;1.77;;;29.50;42.30;;;33.37;27.35;101069.50;5155241;27;20079;-47
2021/06/18 05:44:15;;;;;;;1.83;1.73;;;29.50;42.30;;;33.38;27.32;101065.75;5154919;27;20054;-45
2021/06/18 05:46:41;;;;;;;1.90;1.80;;;29.50;42.20;;;33.40;27.47;101075.41;5154881;27;20051;-49
2021/06/18 05:49:06;;;;;;;1.90;1.80;;;29.60;42.30;;;33.40;27.35;101067.28;5154578;27;20055;-46
2021/06/18 05:51:33;;;;;;;1.80;1.70;;;29.50;42.20;;;33.44;26.90;101077.78;5155272;27;20050;-49
2021/06/18 05:53:59;;;;;;;1.90;1.80;;;29.60;42.20;;;33.47;27.05;101077.44;5154226;27;20050;-48
2021/06/18 05:56:24;;;;;;;2.35;2.15;;;29.60;42.10;;;33.49;27.32;101069.97;5154210;27;20058;-51
2021/06/18 05:58:50;;;;;;;1.70;1.60;;;29.60;42.00;;;33.51;26.91;101073.34;5154710;27;20071;-46
2021/06/18 06:01:16;;;;;;;1.83;1.73;;;29.70;42.00;;;33.57;26.98;101078.09;5154248;27;20053;-53
2021/06/18 06:03:42;;;;;;;1.73;1.63;;;29.70;42.00;;;33.59;26.92;101076.03;5153914;27;20050;-49
2021/06/18 06:06:11;;;;;;;3.28;1.90;;;29.70;42.00;;;33.63;26.83;101079.25;5154313;27;20050;-45
2021/06/18 06:08:37;;;;;;;1.80;1.70;;;29.80;41.90;;;33.64;26.89;101073.63;5154365;27;20047;-50
2021/06/18 06:11:04;;;;;;;2.05;1.95;;;29.80;41.80;;;33.67;26.81;101072.47;5154867;27;20121;-52
2021/06/18 06:13:30;;;;;;;1.67;1.58;;;29.90;41.80;;;33.72;27.02;101078.25;5154246;27;20050;-46
2021/06/18 06:15:55;;;;;;;1.95;1.80;;;29.90;41.80;;;33.74;26.57;101077.03;5154833;27;20062;-47
2021/06/18 06:18:22;;;;;;;1.80;1.70;;;30.00;41.70;;;33.81;26.77;101079.03;5153860;27;20043;-47
2021/06/18 06:20:48;;;;;;;1.60;1.50;;;30.00;41.70;;;33.84;26.66;101078.69;5154157;27;20051;-48
2021/06/18 06:23:15;;;;;;;1.80;1.70;;;30.00;41.60;;;33.86;26.88;101072.06;5154121;27;20160;-49
2021/06/18 06:25:40;;;;;;;1.77;1.67;;;30.10;41.60;;;33.90;26.93;101083.44;5133888;27;20096;-53
2021/06/18 06:28:07;;;;;;;2.00;1.90;;;30.10;41.50;;;33.95;26.98;101091.88;5153838;27;20445;-46
2021/06/18 06:30:34;;;;;;;1.80;1.70;;;30.20;41.50;;;33.97;26.57;101081.69;5135717;27;20050;-50
2021/06/18 06:33:00;;;;;;;1.80;1.70;;;30.20;41.40;;;33.99;26.62;101085.06;5154334;27;20052;-52
2021/06/18 06:35:26;;;;;;;1.70;1.60;;;30.20;41.30;;;34.06;26.54;101079.78;5154053;27;20047;-54
2021/06/18 06:37:54;;;;;;;1.98;1.88;;;30.30;41.40;;;34.06;26.51;101083.31;5154049;27;20034;-52
2021/06/18 06:40:22;;;;;;;2.00;1.90;;;30.30;41.30;;;34.11;26.39;101088.22;5153819;27;20046;-50
2021/06/18 06:42:48;;;;;;;1.65;1.55;;;30.30;41.20;;;34.13;26.32;101078.03;5135569;27;20046;-52
2021/06/18 06:45:15;;;;;;;1.77;1.67;;;30.40;41.20;;;34.18;26.64;101082.94;5154097;27;20054;-52
2021/06/18 06:47:40;;;;;;;2.03;1.90;;;30.40;41.10;;;34.20;26.62;101075.47;5154613;27;20043;-51
2021/06/18 06:50:10;;;;;;;2.20;2.00;;;30.40;41.10;;;34.25;26.61;101075.78;5153916;27;20439;-52
2021/06/18 06:52:36;;;;;;;1.70;1.60;;;30.50;41.10;;;34.27;26.35;101077.31;5153985;27;20047;-53
2021/06/18 06:55:02;;;;;;;2.00;1.90;;;30.50;41.00;;;34.31;26.55;101081.34;5153817;27;20039;-49
2021/06/18 06:57:28;;;;;;;1.80;1.70;;;30.50;40.90;;;34.36;26.43;101080.00;5135303;27;20043;-51
2021/06/18 06:59:54;;;;;;;1.83;1.73;;;30.50;40.80;;;34.39;26.20;101085.91;5135292;27;20057;-51
2021/06/18 07:02:20;;;;;;;1.85;1.75;;;30.60;40.80;;;34.43;25.92;101083.66;5153821;27;20058;-52
2021/06/18 07:04:46;;;;;;;1.98;1.88;;;30.60;40.70;;;34.44;26.27;101079.94;5154544;27;20506;-53
2021/06/18 07:07:13;;;;;;;1.80;1.70;;;30.70;40.80;;;34.50;26.15;101087.38;5157913;27;20117;-51
2021/06/18 07:09:39;;;;;;;1.60;1.50;;;30.70;40.70;;;34.49;26.23;101077.53;5157479;27;20054;-48
2021/06/18 07:12:09;;;;;;;1.70;1.60;;;30.80;40.70;;;34.52;26.05;101080.72;5139400;27;20050;-51
2021/06/18 07:14:38;;;;;;;2.10;2.00;;;30.80;40.70;;;34.56;26.06;101080.38;5139205;27;20058;-52
2021/06/18 07:17:04;;;;;;;1.90;1.80;;;30.80;40.60;;;34.62;25.89;101088.63;5137518;27;20134;-54
2021/06/18 07:19:30;;;;;;;1.90;1.80;;;30.80;40.50;;;34.64;25.88;101083.84;5136761;27;20043;-51
2021/06/18 07:21:56;;;;;;;1.80;1.70;;;30.90;40.50;;;34.67;25.66;101086.22;5157158;27;20043;-49
2021/06/18 07:24:22;;;;;;;1.88;1.77;;;30.90;40.50;;;34.70;25.73;101087.75;5138415;27;20050;-53
2021/06/18 07:26:47;;;;;;;1.83;1.73;;;30.90;40.40;;;34.73;25.95;101087.38;5157263;27;20504;-51
2021/06/18 07:29:13;;;;;;;1.70;1.60;;;30.90;40.40;;;34.73;25.63;101087.38;5157196;27;20047;-50
2021/06/18 07:31:39;;;;;;;2.08;1.83;;;31.00;40.40;;;34.76;25.79;101084.31;5157403;27;20126;-52
2021/06/18 07:34:06;;;;;;;1.80;1.70;;;31.00;40.30;;;34.77;25.69;101083.28;5157012;27;20395;-49
2021/06/18 07:36:33;;;;;;;1.80;1.70;;;31.00;40.30;;;34.81;25.65;101086.47;5156988;27;20051;-47
2021/06/18 07:38:59;;;;;;;1.70;1.60;;;31.10;40.30;;;34.83;25.55;101077.13;5156837;27;20071;-50
2021/06/18 07:41:25;;;;;;;1.70;1.60;;;31.10;40.20;;;34.87;25.66;101088.47;5156788;27;20125;-52
2021/06/18 07:43:51;;;;;;;2.03;1.92;;;31.10;40.20;;;34.89;25.58;101089.13;5156950;27;20468;-50
2021/06/18 07:46:17;;;;;;;1.63;1.52;;;31.10;40.20;;;34.88;25.73;101080.16;5156949;27;20054;-51
2021/06/18 07:48:42;;;;;;;1.83;1.73;;;31.10;40.10;;;34.93;25.54;101086.91;5156893;27;20099;-48
2021/06/18 07:51:09;;;;;;;1.80;1.70;;;31.10;40.10;;;34.94;25.51;101077.72;5156463;27;20047;-49
2021/06/18 07:53:35;;;;;;;1.63;1.52;;;31.20;40.20;;;34.92;25.46;101071.59;5156783;27;20138;-55
2021/06/18 07:56:01;;;;;;;1.65;1.55;;;31.20;40.20;;;34.97;25.53;101082.81;5156733;27;20129;-54
2021/06/18 07:58:27;;;;;;;1.90;1.80;;;31.20;40.10;;;34.98;25.42;101071.72;5156602;27;20372;-46
2021/06/18 08:00:53;;;;;;;1.80;1.70;;;31.20;40.20;;;34.95;25.60;101063.09;5156601;27;20555;-48
2021/06/18 08:03:18;;;;;;;1.73;1.63;;;31.20;40.10;;;35.00;25.42;101071.53;5156840;27;20046;-47
2021/06/18 08:05:44;;;;;;;1.70;1.60;;;31.20;40.10;;;34.97;25.19;101070.06;5156829;27;20045;-49
2021/06/18 08:08:12;;;;;;;2.10;2.00;;;31.20;40.10;;;35.01;25.37;101068.63;5156559;27;20053;-51
2021/06/18 08:10:38;;;;;;;1.80;1.70;;;31.20;40.00;;;35.01;25.50;101071.34;5156819;27;20361;-51
2021/06/18 08:13:04;;;;;;;1.70;1.60;;;31.20;40.00;;;35.01;25.33;101079.50;5156324;27;20039;-50
2021/06/18 08:15:30;;;;;;;1.90;1.80;;;31.20;40.00;;;35.04;25.24;101079.16;5156204;27;20065;-50
2021/06/18 08:17:56;;;;;;;1.70;1.60;;;31.20;40.00;;;35.01;25.22;101068.63;5137110;27;20034;-50
2021/06/18 08:20:25;;;;;;;1.70;1.60;;;31.20;40.00;;;35.04;25.43;101071.00;5156375;27;20080;-52
2021/06/18 08:22:51;;;;;;;1.67;1.58;;;31.30;40.00;;;35.02;25.39;101058.63;5156280;27;20039;-51
2021/06/18 08:25:17;;;;;;;1.63;1.52;;;31.30;40.00;;;35.04;25.38;101054.69;5120405;27;20141;-48
2021/06/18 08:27:43;;;;;;;1.50;1.40;;;31.30;40.00;;;35.04;25.41;101062.00;5137457;27;20483;-51
2021/06/18 08:30:09;;;;;;;1.95;1.85;;;31.30;40.00;;;35.04;25.15;101053.84;5156441;27;20049;-52
2021/06/18 08:32:36;;;;;;;1.70;1.60;;;31.30;40.00;;;35.04;25.17;101056.56;5156078;27;20054;-51
2021/06/18 08:35:03;;;;;;;1.60;1.50;;;31.30;40.00;;;35.02;25.33;101055.91;5137832;27;20052;-49
2021/06/18 08:37:29;;;;;;;2.03;1.80;;;31.30;40.00;;;35.03;25.44;101055.75;5137523;27;20129;-50
2021/06/18 08:39:55;;;;;;;1.60;1.50;;;31.30;39.90;;;35.03;25.40;101052.16;5137196;27;20121;-49
2021/06/18 08:42:20;;;;;;;2.00;1.88;;;31.30;40.00;;;35.02;25.52;101055.91;5155910;27;20051;-52
2021/06/18 08:44:46;;;;;;;1.80;1.70;;;31.30;39.90;;;35.00;25.46;101055.25;5155968;27;20039;-48
2021/06/18 08:47:13;;;;;;;1.55;1.45;;;31.30;40.00;;;34.99;25.41;101051.69;5135419;27;20096;-49
2021/06/18 08:49:39;;;;;;;1.90;1.80;;;31.30;40.00;;;34.97;25.44;101045.59;5155674;27;20134;-49
2021/06/18 08:52:06;;;;;;;1.67;1.58;;;31.30;40.00;;;34.97;25.61;101048.31;5156097;27;20130;-48
2021/06/18 08:54:41;;;;;;;1.70;1.60;;;31.20;39.90;;;34.95;25.46;101044.94;5155686;27;20055;-51
2021/06/18 08:57:14;;;;;;;1.60;1.50;;;31.30;40.00;;;34.92;25.62;101039.88;5137437;27;20061;-46
2021/06/18 08:59:40;;;;;;;1.70;1.60;;;31.30;40.00;;;34.96;25.55;101048.50;5155647;27;20050;-53
2021/06/18 09:02:06;;;;;;;1.60;1.50;;;31.30;40.00;;;34.92;25.45;101045.31;5155945;27;20046;-51
2021/06/18 09:04:32;;;;;;;1.70;1.60;;;31.30;40.10;;;34.92;25.49;101041.72;5155526;27;20057;-51
2021/06/18 09:07:00;;;;;;;1.60;1.50;;;31.20;40.00;;;34.87;25.46;101039.59;5155506;27;20046;-49
2021/06/18 09:09:28;;;;;;;1.50;1.40;;;31.20;40.00;;;34.85;25.64;101042.47;5155553;27;20116;-51
2021/06/18 09:11:55;;;;;;;1.63;1.52;;;31.20;40.10;;;34.85;25.64;101041.63;5155759;27;20062;-51
2021/06/18 09:14:26;;;;;;;2.00;1.90;;;31.20;40.10;;;34.81;25.74;101037.59;5155385;27;20046;-50
2021/06/18 09:17:14;;;;;;;1.55;1.45;;;31.20;40.10;;;34.80;25.51;101039.47;5155916;27;20043;-49
2021/06/18 09:19:45;;;;;;;1.73;1.63;;;31.20;40.20;;;34.79;25.61;101043.22;5154406;27;20051;-51
2021/06/18 09:22:14;;;;;;;;;;;31.20;40.20;;;34.87;25.66;101035.00;5155812;27;20400;-52
2021/06/18 09:24:47;;;;;;;1.58;1.48;;;31.20;40.20;;;34.80;25.62;101030.47;5155084;27;19915;-50
2021/06/18 09:27:13;;;;;;;1.80;1.70;;;31.20;40.10;;;34.76;25.73;101023.72;5155172;27;20428;-48
2021/06/18 09:29:41;;;;;;;1.60;1.50;;;31.20;40.10;;;34.75;25.62;101033.75;5155662;27;20121;-48
2021/06/18 09:32:17;;;;;;;1.90;1.80;;;31.20;40.20;;;34.70;25.89;101031.53;5155438;27;20050;-53
2021/06/18 09:37:33;;;;;;;1.90;1.80;;;31.20;40.10;;;34.71;25.66;101035.94;5155556;27;20058;-55
2021/06/18 09:40:17;;;;;;;1.73;1.63;;;31.20;40.20;;;34.68;25.55;101035.44;5155081;27;20045;-50
2021/06/18 09:42:58;;;;;;;1.90;1.80;;;31.20;40.20;;;34.66;25.97;101022.06;5155236;27;20388;-51
2021/06/18 09:45:33;;;;;;;1.40;1.35;;;31.20;40.20;;;34.64;26.08;101015.97;5154885;27;20051;-52
2021/06/18 09:48:20;;;;;;;1.85;1.75;;;31.20;40.20;;;34.66;25.97;101021.22;5136416;27;20474;-52
2021/06/18 09:50:58;;;;;;;1.90;1.80;;;31.20;40.20;;;34.67;25.61;101014.78;5136279;27;20034;-52
2021/06/18 09:53:27;;;;;;;1.80;1.70;;;31.20;40.10;;;34.69;26.01;101018.16;5154790;27;20403;-47
2021/06/18 09:56:04;;;;;;;1.90;1.80;;;31.20;40.10;;;34.67;26.09;101015.59;5136343;27;20047;-47
2021/06/18 09:58:36;;;;;;;1.67;1.58;;;31.20;40.20;;;34.69;26.12;101007.28;5136370;27;20478;-53
2021/06/18 10:01:27;;;;;;;1.70;1.60;;;31.20;40.10;;;34.65;25.92;101003.22;5154972;27;20055;-53
2021/06/18 10:04:19;;;;;;;;;;;31.20;40.20;;;34.81;25.71;101008.53;5154985;27;20403;-53
2021/06/18 10:06:45;;;;;;;1.80;1.70;;;31.20;40.10;;;34.74;25.85;101002.16;5149639;27;19915;-50
2021/06/18 10:09:15;;;;;;;1.45;1.35;;;31.20;40.10;;;34.70;25.75;100998.13;5154563;27;20116;-51
2021/06/18 10:11:45;;;;;;;1.70;1.60;;;31.20;40.10;;;34.71;25.88;101008.78;5154909;27;20085;-50
2021/06/18 10:14:14;;;;;;;1.90;1.80;;;31.20;40.10;;;34.69;25.69;101010.00;5154596;27;20109;-52
2021/06/18 10:16:41;;;;;;;1.67;1.58;;;31.20;40.10;;;34.67;26.07;101009.34;5154444;27;20054;-52
2021/06/18 10:19:08;;;;;;;1.40;1.30;;;31.20;40.10;;;34.67;25.96;101004.75;5154787;27;20050;-48
2021/06/18 10:21:51;;;;;;;1.75;1.65;;;31.20;40.10;;;34.64;25.99;101002.41;5154405;27;20046;-51